createdAt,value
2023-01-03T00:02:06.857Z,100957.66
2023-01-03T00:04:33.553Z,100970.19
2023-01-03T00:07:00.152Z,100965.38
2023-01-03T00:09:26.721Z,100969.47
2023-01-03T00:12:12.976Z,100970.69
2023-01-03T00:14:41.771Z,100971.31
2023-01-03T00:17:09.476Z,100974.28
2023-01-03T00:19:40.020Z,100979.03
2023-01-03T00:22:07.343Z,100974.50
2023-01-03T00:24:34.088Z,100967.28
2023-01-03T00:27:00.796Z,100976.53
2023-01-03T00:29:27.615Z,100987.00
2023-01-03T00:31:54.384Z,100994.44
2023-01-03T00:34:21.045Z,100990.88
2023-01-03T00:36:47.813Z,101001.25
2023-01-03T00:39:14.653Z,101011.94
2023-01-03T00:41:41.645Z,101014.28
2023-01-03T00:44:08.606Z,101014.34
2023-01-03T00:46:35.848Z,101030.81
2023-01-03T00:49:04.334Z,101023.00
2023-01-03T00:51:33.531Z,101028.16
2023-01-03T00:54:01.499Z,101042.22
2023-01-03T00:56:32.065Z,101047.13
2023-01-03T00:58:58.716Z,101051.53
2023-01-03T01:01:42.466Z,101051.69
2023-01-03T01:04:14.361Z,101067.09
2023-01-03T01:06:43.412Z,101078.47
2023-01-03T01:09:16.650Z,101080.66
2023-01-03T01:11:43.261Z,101089.72
2023-01-03T01:14:20.203Z,101105.53
2023-01-03T01:16:55.884Z,101106.59
2023-01-03T01:19:32.074Z,101107.94
2023-01-03T01:21:58.708Z,101115.31
2023-01-03T01:24:25.789Z,101119.25
2023-01-03T01:26:52.561Z,101129.59
2023-01-03T01:29:19.937Z,101138.09
2023-01-03T01:31:48.021Z,101147.75
2023-01-03T01:34:15.763Z,101157.53
2023-01-03T01:36:43.618Z,101161.16
2023-01-03T01:39:12.091Z,101165.03
2023-01-03T01:41:58.311Z,101167.56
2023-01-03T01:44:42.134Z,101179.22
2023-01-03T01:47:30.052Z,101183.38
2023-01-03T01:50:12.221Z,101187.00
2023-01-03T01:52:42.179Z,101193.72
2023-01-03T01:55:13.178Z,101189.50
2023-01-03T01:57:40.665Z,101197.72
2023-01-03T02:00:09.152Z,101199.69
2023-01-03T02:02:42.846Z,101207.06
2023-01-03T02:05:10.566Z,101214.06
2023-01-03T02:07:38.274Z,101209.25
2023-01-03T02:10:05.956Z,101214.75
2023-01-03T02:12:56.680Z,101213.78
2023-01-03T02:15:41.819Z,101216.56
2023-01-03T02:18:33.364Z,101216.13
2023-01-03T02:21:21.631Z,101220.63
2023-01-03T02:23:50.870Z,101219.91
2023-01-03T02:26:49.478Z,101215.56
2023-01-03T02:29:34.391Z,101215.41
2023-01-03T02:32:15.651Z,101206.94
2023-01-03T02:35:01.021Z,101215.47
2023-01-03T02:37:48.422Z,101212.53
2023-01-03T02:40:26.115Z,101209.88
2023-01-03T02:43:25.842Z,101203.88
2023-01-03T02:46:09.619Z,101205.25
2023-01-03T02:48:54.733Z,101209.88
2023-01-03T02:51:31.802Z,101214.75
2023-01-03T02:53:58.640Z,101218.25
2023-01-03T02:56:44.778Z,101226.34
2023-01-03T02:59:15.678Z,101234.13
2023-01-03T03:01:45.198Z,101244.78
2023-01-03T03:04:12.879Z,101245.19
2023-01-03T03:06:43.593Z,101248.41
2023-01-03T03:09:10.285Z,101255.66
2023-01-03T03:11:56.534Z,101263.22
2023-01-03T03:14:38.394Z,101279.97
2023-01-03T03:17:09.401Z,101281.06
2023-01-03T03:19:56.882Z,101291.84
2023-01-03T03:22:59.307Z,101294.78
2023-01-03T03:25:29.563Z,101304.84
2023-01-03T03:28:18.841Z,101320.78
2023-01-03T03:30:48.217Z,101340.19
2023-01-03T03:33:15.804Z,101350.09
2023-01-03T03:36:19.382Z,101369.28
2023-01-03T03:38:46.458Z,101403.78
2023-01-03T03:41:36.871Z,101432.72
2023-01-03T03:44:29.829Z,101462.22
2023-01-03T03:47:07.601Z,101479.69
2023-01-03T03:49:38.617Z,101495.06
2023-01-03T03:52:11.938Z,101504.00
2023-01-03T03:54:40.201Z,101521.50
2023-01-03T03:57:22.095Z,101526.25
2023-01-03T03:59:55.412Z,101541.91
2023-01-03T04:02:23.192Z,101555.19
2023-01-03T04:04:54.178Z,101556.72
2023-01-03T04:07:20.800Z,101563.16
2023-01-03T04:09:47.469Z,101572.28
2023-01-03T04:12:15.187Z,101585.31
2023-01-03T04:14:41.821Z,101584.63
2023-01-03T04:17:08.781Z,101596.50
2023-01-03T04:19:35.548Z,101604.47
2023-01-03T04:22:02.160Z,101604.31
2023-01-03T04:24:28.758Z,101615.22
2023-01-03T04:26:55.411Z,101618.19
2023-01-03T04:29:22.076Z,101614.94
2023-01-03T04:31:48.746Z,101621.66
2023-01-03T04:34:15.475Z,101619.00
2023-01-03T04:36:42.130Z,101618.03
2023-01-03T04:39:08.729Z,101625.72
2023-01-03T04:41:35.486Z,101622.63
2023-01-03T04:44:02.228Z,101617.91
2023-01-03T04:46:33.401Z,101617.47
2023-01-03T04:49:00.443Z,101614.28
2023-01-03T04:51:28.187Z,101613.69
2023-01-03T04:53:55.021Z,101622.22
2023-01-03T04:56:29.706Z,101626.97
2023-01-03T04:58:56.973Z,101619.00
2023-01-03T05:01:25.129Z,101619.28
2023-01-03T05:03:52.020Z,101622.09
2023-01-03T05:06:18.877Z,101630.31
2023-01-03T05:08:47.250Z,101634.66
2023-01-03T05:11:14.117Z,101632.72
2023-01-03T05:13:40.716Z,101627.19
2023-01-03T05:16:09.909Z,101635.88
2023-01-03T05:18:39.775Z,101629.03
2023-01-03T05:21:38.751Z,101633.22
2023-01-03T05:24:24.610Z,101634.72
2023-01-03T05:26:51.624Z,101637.91
2023-01-03T05:29:20.750Z,101637.94
2023-01-03T05:31:47.930Z,101636.25
2023-01-03T05:34:14.666Z,101639.59
2023-01-03T05:36:41.414Z,101634.56
2023-01-03T05:39:08.134Z,101641.81
2023-01-03T05:41:53.564Z,101650.44
2023-01-03T05:44:20.248Z,101642.72
2023-01-03T05:46:46.948Z,101645.19
2023-01-03T05:49:13.548Z,101643.19
2023-01-03T05:51:40.305Z,101647.53
2023-01-03T05:54:07.018Z,101648.81
2023-01-03T05:56:33.900Z,101652.31
2023-01-03T05:59:00.738Z,101663.25
2023-01-03T06:01:28.448Z,101663.25
2023-01-03T06:03:55.747Z,101662.16
2023-01-03T06:06:22.455Z,101676.28
2023-01-03T06:08:49.666Z,101676.91
2023-01-03T06:11:17.261Z,101678.81
2023-01-03T06:13:44.522Z,101685.47
2023-01-03T06:16:37.900Z,101694.41
2023-01-03T06:19:05.757Z,101698.88
2023-01-03T06:21:32.905Z,101698.44
2023-01-03T06:23:59.618Z,101705.84
2023-01-03T06:26:26.756Z,101704.09
2023-01-03T06:28:53.422Z,101715.97
2023-01-03T06:31:20.575Z,101713.25
2023-01-03T06:33:48.050Z,101720.91
2023-01-03T06:36:17.178Z,101718.03
2023-01-03T06:38:44.115Z,101715.06
2023-01-03T06:41:11.019Z,101730.13
2023-01-03T06:43:37.668Z,101735.06
2023-01-03T06:46:23.277Z,101741.31
2023-01-03T06:49:08.526Z,101745.28
2023-01-03T06:51:53.753Z,101754.13
2023-01-03T06:54:24.839Z,101762.88
2023-01-03T06:56:52.433Z,101777.59
2023-01-03T06:59:21.025Z,101774.50
2023-01-03T07:01:49.108Z,101780.28
2023-01-03T07:04:16.026Z,101778.81
2023-01-03T07:06:43.060Z,101773.78
2023-01-03T07:09:10.494Z,101783.16
2023-01-03T07:11:37.989Z,101774.25
2023-01-03T07:14:05.731Z,101770.75
2023-01-03T07:16:35.509Z,101756.06
2023-01-03T07:19:03.743Z,101752.19
2023-01-03T07:21:31.681Z,101740.53
2023-01-03T07:24:01.757Z,101738.47
2023-01-03T07:26:33.632Z,101736.66
2023-01-03T07:29:02.140Z,101741.59
2023-01-03T07:31:29.022Z,101745.22
2023-01-03T07:33:55.836Z,101747.16
2023-01-03T07:36:22.388Z,101743.06
2023-01-03T07:38:49.327Z,101742.09
2023-01-03T07:41:16.717Z,101740.41
2023-01-03T07:43:46.701Z,101740.28
2023-01-03T07:46:18.003Z,101738.13
2023-01-03T07:48:46.311Z,101736.78
2023-01-03T07:51:14.557Z,101737.75
2023-01-03T07:53:41.548Z,101741.34
2023-01-03T07:56:13.790Z,101738.59
2023-01-03T07:58:42.030Z,101748.09
2023-01-03T08:01:19.969Z,101748.09
2023-01-03T08:03:46.898Z,101750.03
2023-01-03T08:06:16.723Z,101757.16
2023-01-03T08:08:44.840Z,101762.69
2023-01-03T08:11:32.133Z,101761.00
2023-01-03T08:13:59.020Z,101769.69
2023-01-03T08:16:25.799Z,101770.63
2023-01-03T08:18:52.568Z,101772.31
2023-01-03T08:21:19.199Z,101768.81
2023-01-03T08:23:45.908Z,101778.22
2023-01-03T08:26:14.780Z,101775.94
2023-01-03T08:28:42.807Z,101783.41
2023-01-03T08:31:15.611Z,101784.00
2023-01-03T08:33:58.062Z,101785.81
2023-01-03T08:36:26.730Z,101786.31
2023-01-03T08:38:57.067Z,101788.31
2023-01-03T08:41:26.477Z,101792.31
2023-01-03T08:43:54.440Z,101790.16
2023-01-03T08:46:21.137Z,101783.41
2023-01-03T08:48:47.985Z,101783.16
2023-01-03T08:51:14.700Z,101788.34
2023-01-03T08:53:41.258Z,101781.94
2023-01-03T08:56:08.246Z,101790.03
2023-01-03T08:58:34.942Z,101795.34
2023-01-03T09:01:02.942Z,101793.16
2023-01-03T09:03:29.611Z,101798.31
2023-01-03T09:06:00.102Z,101797.25
2023-01-03T09:08:26.774Z,101789.41
2023-01-03T09:10:53.432Z,101793.03
2023-01-03T09:13:20.110Z,101797.75
2023-01-03T09:15:46.756Z,101781.56
2023-01-03T09:18:13.423Z,101792.75
2023-01-03T09:20:40.037Z,101800.13
2023-01-03T09:23:06.701Z,101797.09
2023-01-03T09:25:37.294Z,101803.84
2023-01-03T09:28:04.584Z,101803.63
2023-01-03T09:30:31.216Z,101810.84
2023-01-03T09:32:57.877Z,101806.16
2023-01-03T09:35:24.512Z,101813.59
2023-01-03T09:37:51.306Z,101804.19
2023-01-03T09:40:18.034Z,101802.88
2023-01-03T09:43:03.406Z,101798.63
2023-01-03T09:45:33.108Z,101801.41
2023-01-03T09:48:04.020Z,101807.44
2023-01-03T09:50:57.400Z,101805.75
2023-01-03T09:53:49.086Z,101803.16
2023-01-03T09:56:34.422Z,101801.63
2023-01-03T09:59:28.708Z,101796.09
2023-01-03T10:02:41.094Z,101795.97
2023-01-03T10:05:32.751Z,101790.16
2023-01-03T10:08:30.491Z,101788.44
2023-01-03T10:11:00.097Z,101800.00
2023-01-03T10:13:42.430Z,101791.00
2023-01-03T10:16:41.633Z,101789.69
2023-01-03T10:19:39.136Z,101788.72
2023-01-03T10:22:11.075Z,101787.09
2023-01-03T10:25:09.792Z,101781.22
2023-01-03T10:27:48.039Z,101777.91
2023-01-03T10:30:17.913Z,101776.22
2023-01-03T10:32:52.386Z,101780.56
2023-01-03T10:35:35.561Z,101777.41
2023-01-03T10:38:02.548Z,101772.22
2023-01-03T10:40:38.281Z,101771.53
2023-01-03T10:43:28.792Z,101766.16
2023-01-03T10:46:00.202Z,101768.50
2023-01-03T10:49:16.951Z,101757.69
2023-01-03T10:51:43.021Z,101757.44
2023-01-03T10:54:19.225Z,101748.06
2023-01-03T10:56:47.606Z,101749.47
2023-01-03T10:59:24.444Z,101750.91
2023-01-03T11:02:00.555Z,101739.47
2023-01-03T11:04:28.843Z,101731.78
2023-01-03T11:07:13.919Z,101725.28
2023-01-03T11:09:51.487Z,101727.94
2023-01-03T11:12:29.214Z,101716.22
2023-01-03T11:14:57.276Z,101711.47
2023-01-03T11:17:25.905Z,101707.13
2023-01-03T11:19:53.088Z,101704.19
2023-01-03T11:22:42.449Z,101696.81
2023-01-03T11:25:57.395Z,101695.47
2023-01-03T11:28:32.831Z,101688.63
2023-01-03T11:31:06.918Z,101679.97
2023-01-03T11:33:42.760Z,101681.66
2023-01-03T11:36:27.090Z,101662.47
2023-01-03T11:39:15.631Z,101648.06
2023-01-03T11:42:14.579Z,101637.56
2023-01-03T11:45:02.936Z,101617.13
2023-01-03T11:47:44.961Z,101607.06
2023-01-03T11:50:37.736Z,101589.56
2023-01-03T11:53:12.407Z,101576.13
2023-01-03T11:56:00.958Z,101556.94
2023-01-03T11:59:06.927Z,101555.63
2023-01-03T12:01:49.216Z,101530.41
2023-01-03T12:04:31.326Z,101515.72
2023-01-03T12:07:36.791Z,101500.72
2023-01-03T12:10:06.591Z,101485.19
2023-01-03T12:12:36.009Z,101477.78
2023-01-03T12:15:15.673Z,101475.03
2023-01-03T12:17:48.629Z,101475.50
2023-01-03T12:20:21.625Z,101463.00
2023-01-03T12:22:53.543Z,101460.19
2023-01-03T12:25:36.871Z,101453.25
2023-01-03T12:28:10.157Z,101443.97
2023-01-03T12:30:43.530Z,101430.78
2023-01-03T12:33:31.032Z,101428.28
2023-01-03T12:36:03.009Z,101415.56
2023-01-03T12:38:44.765Z,101407.81
2023-01-03T12:41:22.183Z,101392.22
2023-01-03T12:43:55.624Z,101382.91
2023-01-03T12:46:26.118Z,101376.16
2023-01-03T12:48:58.783Z,101375.78
2023-01-03T12:51:25.621Z,101370.34
2023-01-03T12:54:34.920Z,101373.13
2023-01-03T12:57:04.530Z,101366.88
2023-01-03T12:59:56.046Z,101366.63
2023-01-03T13:02:32.235Z,101363.28
2023-01-03T13:05:13.123Z,101351.06
2023-01-03T13:07:41.744Z,101342.50
2023-01-03T13:10:14.404Z,101341.13
2023-01-03T13:12:44.789Z,101339.94
2023-01-03T13:15:36.216Z,101337.41
2023-01-03T13:18:22.934Z,101337.06
2023-01-03T13:20:50.783Z,101328.13
2023-01-03T13:23:29.657Z,101327.94
2023-01-03T13:26:05.731Z,101330.09
2023-01-03T13:28:33.267Z,101316.59
2023-01-03T13:31:18.307Z,101318.41
2023-01-03T13:33:54.113Z,101313.00
2023-01-03T13:36:21.411Z,101314.16
2023-01-03T13:38:48.168Z,101304.91
2023-01-03T13:41:33.267Z,101306.28
2023-01-03T13:44:21.364Z,101300.25
2023-01-03T13:46:48.243Z,101296.19
2023-01-03T13:49:19.246Z,101294.66
2023-01-03T13:51:52.501Z,101283.78
2023-01-03T13:54:19.120Z,101296.59
2023-01-03T13:56:45.791Z,101292.59
2023-01-03T13:59:15.602Z,101297.69
2023-01-03T14:02:30.288Z,101302.34
2023-01-03T14:05:20.162Z,101295.50
2023-01-03T14:08:08.655Z,101292.22
2023-01-03T14:11:24.776Z,101297.09
2023-01-03T14:13:55.428Z,101295.78
2023-01-03T14:16:44.134Z,101291.25
2023-01-03T14:19:32.177Z,101287.09
2023-01-03T14:22:21.068Z,101285.41
2023-01-03T14:24:52.398Z,101287.72
2023-01-03T14:27:21.751Z,101286.25
2023-01-03T14:29:52.065Z,101286.22
2023-01-03T14:32:21.751Z,101291.09
2023-01-03T14:34:49.016Z,101285.94
2023-01-03T14:37:27.098Z,101296.63
2023-01-03T14:39:55.745Z,101294.94
2023-01-03T14:42:22.987Z,101298.75
2023-01-03T14:44:55.119Z,101295.88
2023-01-03T14:47:22.048Z,101296.34
2023-01-03T14:49:52.968Z,101300.06
2023-01-03T14:52:32.917Z,101294.63
2023-01-03T14:55:04.906Z,101296.63
2023-01-03T14:57:32.427Z,101307.94
2023-01-03T15:00:00.847Z,101305.59
2023-01-03T15:02:31.235Z,101306.59
2023-01-03T15:04:58.634Z,101303.31
2023-01-03T15:07:32.916Z,101306.75
2023-01-03T15:10:18.357Z,101310.16
2023-01-03T15:13:00.708Z,101298.66
2023-01-03T15:15:39.972Z,101298.47
2023-01-03T15:18:09.465Z,101298.78
2023-01-03T15:20:42.797Z,101298.28
2023-01-03T15:23:34.818Z,101288.03
2023-01-03T15:26:01.484Z,101290.34
2023-01-03T15:28:36.935Z,101294.56
2023-01-03T15:31:27.416Z,101285.81
2023-01-03T15:34:03.310Z,101290.59
2023-01-03T15:36:31.943Z,101298.72
2023-01-03T15:38:58.963Z,101295.94
2023-01-03T15:42:12.245Z,101296.63
2023-01-03T15:44:38.609Z,101296.56
2023-01-03T15:47:07.875Z,101299.75
2023-01-03T15:49:40.556Z,101293.06
2023-01-03T15:52:12.480Z,101292.72
2023-01-03T15:54:40.238Z,101290.81
2023-01-03T15:57:13.061Z,101297.97
2023-01-03T15:59:43.481Z,101293.56
2023-01-03T16:02:16.699Z,101290.94
2023-01-03T16:04:45.404Z,101290.34
2023-01-03T16:07:12.108Z,101286.09
2023-01-03T16:09:38.927Z,101280.31
2023-01-03T16:12:09.585Z,101283.44
2023-01-03T16:14:38.908Z,101273.88
2023-01-03T16:17:07.162Z,101274.25
2023-01-03T16:19:34.368Z,101271.34
2023-01-03T16:22:33.999Z,101268.47
2023-01-03T16:24:50.453Z,101273.03
2023-01-03T16:27:22.925Z,101284.28
2023-01-03T16:29:49.534Z,101291.88
2023-01-03T16:32:29.848Z,101282.38
2023-01-03T16:35:07.869Z,101274.63
2023-01-03T16:37:35.275Z,101266.72
2023-01-03T16:40:01.949Z,101268.16
2023-01-03T16:42:28.708Z,101262.06
2023-01-03T16:44:55.548Z,101259.34
2023-01-03T16:47:32.147Z,101259.25
2023-01-03T16:50:01.366Z,101251.41
2023-01-03T16:52:33.147Z,101253.56
2023-01-03T16:55:12.647Z,101256.66
2023-01-03T16:57:39.266Z,101251.13
2023-01-03T17:00:26.154Z,101246.09
2023-01-03T17:02:55.842Z,101249.44
2023-01-03T17:05:22.947Z,101252.94
2023-01-03T17:07:51.444Z,101255.75
2023-01-03T17:10:33.855Z,101255.59
2023-01-03T17:13:06.823Z,101251.16
2023-01-03T17:15:35.255Z,101256.75
2023-01-03T17:18:01.845Z,101253.69
2023-01-03T17:20:28.482Z,101253.84
2023-01-03T17:22:58.876Z,101245.56
2023-01-03T17:25:25.620Z,101248.03
2023-01-03T17:27:54.753Z,101248.94
2023-01-03T17:30:24.271Z,101250.03
2023-01-03T17:32:51.053Z,101246.47
2023-01-03T17:35:18.057Z,101242.44
2023-01-03T17:38:23.482Z,101253.06
2023-01-03T17:40:34.295Z,101254.09
2023-01-03T17:43:02.369Z,101262.94
2023-01-03T17:45:47.973Z,101260.00
2023-01-03T17:48:33.308Z,101264.81
2023-01-03T17:51:01.688Z,101272.78
2023-01-03T17:53:28.802Z,101276.69
2023-01-03T17:55:55.414Z,101275.72
2023-01-03T17:58:30.861Z,101278.13
2023-01-03T18:00:57.548Z,101279.69
2023-01-03T18:03:24.715Z,101287.09
2023-01-03T18:05:52.195Z,101287.09
2023-01-03T18:08:20.906Z,101304.00
2023-01-03T18:10:47.903Z,101306.22
2023-01-03T18:13:26.779Z,101309.59
2023-01-03T18:15:54.352Z,101317.25
2023-01-03T18:18:22.626Z,101324.00
2023-01-03T18:20:50.298Z,101324.09
2023-01-03T18:23:29.315Z,101333.19
2023-01-03T18:25:58.838Z,101338.53
2023-01-03T18:28:26.853Z,101340.00
2023-01-03T18:30:54.873Z,101341.16
2023-01-03T18:33:21.757Z,101341.28
2023-01-03T18:35:48.898Z,101343.41
2023-01-03T18:38:29.949Z,101336.41
2023-01-03T18:41:02.434Z,101325.94
2023-01-03T18:43:32.271Z,101312.34
2023-01-03T18:45:58.987Z,101318.63
2023-01-03T18:48:25.703Z,101311.81
2023-01-03T18:50:58.359Z,101294.34
2023-01-03T18:53:28.306Z,101280.38
2023-01-03T18:55:55.025Z,101272.72
2023-01-03T18:58:39.342Z,101270.19
2023-01-03T19:01:06.994Z,101274.22
2023-01-03T19:03:37.727Z,101266.41
2023-01-03T19:06:16.384Z,101272.13
2023-01-03T19:08:43.269Z,101265.56
2023-01-03T19:11:18.734Z,101262.19
2023-01-03T19:13:51.732Z,101266.66
2023-01-03T19:16:27.780Z,101262.19
2023-01-03T19:18:55.266Z,101264.69
2023-01-03T19:21:26.636Z,101275.00
2023-01-03T19:24:00.168Z,101281.66
2023-01-03T19:26:32.643Z,101284.91
2023-01-03T19:29:01.284Z,101288.25
2023-01-03T19:31:39.720Z,101288.78
2023-01-03T19:34:16.070Z,101276.63
2023-01-03T19:36:42.961Z,101285.63
2023-01-03T19:39:11.095Z,101284.50
2023-01-03T19:42:03.636Z,101286.50
2023-01-03T19:44:30.933Z,101281.50
2023-01-03T19:46:57.701Z,101285.25
2023-01-03T19:49:24.807Z,101276.31
2023-01-03T19:51:51.885Z,101275.19
2023-01-03T19:54:18.725Z,101283.97
2023-01-03T19:56:45.536Z,101282.28
2023-01-03T19:59:25.223Z,101289.44
2023-01-03T20:02:23.510Z,101279.78
2023-01-03T20:04:38.968Z,101278.78
2023-01-03T20:07:13.900Z,101264.69
2023-01-03T20:09:40.654Z,101248.88
2023-01-03T20:12:17.466Z,101240.31
2023-01-03T20:14:50.767Z,101212.59
2023-01-03T20:17:26.290Z,101197.63
2023-01-03T20:20:00.714Z,101166.13
2023-01-03T20:25:44.404Z,101128.88
2023-01-03T20:28:44.648Z,101115.59
2023-01-03T20:31:14.013Z,101092.44
2023-01-03T20:34:08.721Z,101085.44
2023-01-03T20:36:58.182Z,101076.53
2023-01-03T20:39:41.523Z,101064.25
2023-01-03T20:42:36.874Z,101057.47
2023-01-03T20:45:26.428Z,101041.22
2023-01-03T20:48:03.546Z,101029.19
2023-01-03T20:50:33.085Z,101028.75
2023-01-03T20:53:22.802Z,101017.81
2023-01-03T20:56:12.214Z,101007.22
2023-01-03T20:58:50.008Z,100993.25
2023-01-03T21:01:33.545Z,100980.03
2023-01-03T21:04:13.815Z,100973.66
2023-01-03T21:10:21.547Z,100988.09
2023-01-03T21:13:00.899Z,100976.13
2023-01-03T21:15:29.389Z,100966.06
2023-01-03T21:18:29.132Z,100949.94
2023-01-03T21:21:16.275Z,100947.63
2023-01-03T21:24:05.508Z,100933.66
2023-01-03T21:26:59.394Z,100927.44
2023-01-03T21:32:30.478Z,100934.06
2023-01-03T21:35:06.996Z,100912.88
2023-01-03T21:37:39.456Z,100912.16
2023-01-03T21:40:40.437Z,100911.25
2023-01-03T21:43:17.711Z,100898.78
2023-01-03T21:48:54.880Z,100892.34
2023-01-03T21:51:38.498Z,100878.19
2023-01-03T21:54:26.586Z,100875.75
2023-01-03T21:57:29.065Z,100873.16
2023-01-03T22:00:23.459Z,100872.72
2023-01-03T22:03:19.511Z,100884.91
2023-01-03T22:06:23.201Z,100883.56
2023-01-03T22:09:12.230Z,100876.81
2023-01-03T22:11:59.656Z,100881.00
2023-01-03T22:14:55.607Z,100882.31
2023-01-03T22:23:26.664Z,100905.25
2023-01-03T22:31:47.115Z,100889.81
2023-01-03T22:34:48.351Z,100890.41
2023-01-03T22:40:51.977Z,100875.22
2023-01-03T22:43:47.303Z,100863.94
2023-01-03T22:46:28.277Z,100869.03
2023-01-03T22:49:05.990Z,100852.44
2023-01-03T22:51:54.363Z,100848.13
2023-01-03T22:54:51.837Z,100835.06
2023-01-03T22:57:31.039Z,100829.25
2023-01-03T23:00:21.816Z,100817.59
2023-01-03T23:02:51.252Z,100821.94
2023-01-03T23:05:27.148Z,100809.72
2023-01-03T23:08:12.396Z,100803.63
2023-01-03T23:10:45.255Z,100801.47
2023-01-03T23:16:33.045Z,100802.19
2023-01-03T23:19:10.779Z,100810.44
2023-01-03T23:21:50.204Z,100796.31
2023-01-03T23:24:35.631Z,100799.19
2023-01-03T23:27:13.883Z,100791.34
2023-01-03T23:32:54.517Z,100779.28
2023-01-03T23:35:51.035Z,100772.78
2023-01-03T23:39:28.951Z,100767.28
2023-01-03T23:42:24.209Z,100772.88
2023-01-03T23:44:55.803Z,100753.97
2023-01-03T23:47:40.027Z,100740.69
2023-01-03T23:50:24.389Z,100737.50
2023-01-03T23:52:58.890Z,100731.84
2023-01-03T23:55:28.052Z,100740.59
2023-01-03T23:57:56.247Z,100727.34
